Time;durP1;ratioP1;P1;durP2;ratioP2;P2;SDS_P1;SDS_P2;PMS_P1;PMS_P2;Temp;Humidity;BMP_temperature;BMP_pressure;BME280_temperature;BME280_humidity;BME280_pressure;Samples;Min_cycle;Max_cycle;Signal;HPM_P1;HPM_P2
2022/02/25 00:01:59;;;;;;;8.93;1.20;;;4.70;99.90;;;;;;5028527;28;20022;-34
2022/02/25 00:04:25;;;;;;;6.50;1.27;;;4.60;99.90;;;;;;5024837;28;20446;-37
2022/02/25 00:06:50;;;;;;;8.23;1.73;;;4.60;99.90;;;;;;5025707;28;20030;-32
2022/02/25 00:09:16;;;;;;;7.68;1.30;;;4.70;99.90;;;;;;5017849;28;20087;-39
2022/02/25 00:11:42;;;;;;;4.47;0.98;;;4.70;99.90;;;;;;5033481;28;20032;-34
2022/02/25 00:14:07;;;;;;;6.75;1.60;;;4.70;99.90;;;;;;5027162;28;20112;-36
2022/02/25 00:16:33;;;;;;;4.38;0.98;;;4.60;99.90;;;;;;5032758;28;20319;-32
2022/02/25 00:18:58;;;;;;;8.30;0.95;;;4.60;99.90;;;;;;5032769;28;20048;-33
2022/02/25 00:21:24;;;;;;;3.15;0.70;;;4.60;99.90;;;;;;5032897;28;20026;-34
2022/02/25 00:23:50;;;;;;;4.35;1.33;;;4.60;99.90;;;;;;5032070;28;20108;-34
2022/02/25 00:26:15;;;;;;;9.82;0.98;;;4.60;99.90;;;;;;5038893;28;20096;-35
2022/02/25 00:28:41;;;;;;;5.65;1.13;;;4.50;99.90;;;;;;5052651;28;20454;-41
2022/02/25 00:31:07;;;;;;;13.07;1.60;;;4.50;99.90;;;;;;5014916;28;20060;-41
2022/02/25 00:33:32;;;;;;;5.50;1.35;;;4.50;99.90;;;;;;5012880;28;20478;-35
2022/02/25 00:35:58;;;;;;;11.90;1.42;;;4.50;99.90;;;;;;5013136;28;20592;-33
2022/02/25 00:38:24;;;;;;;12.93;1.27;;;4.40;99.90;;;;;;5012855;28;20107;-32
2022/02/25 00:40:49;;;;;;;2.22;0.52;;;4.40;99.90;;;;;;5029394;28;20021;-31
2022/02/25 00:43:15;;;;;;;7.85;1.48;;;4.40;99.90;;;;;;5032511;28;20025;-36
2022/02/25 00:45:40;;;;;;;2.70;0.88;;;4.40;99.90;;;;;;5032464;28;20025;-33
2022/02/25 00:48:06;;;;;;;7.78;1.20;;;4.40;99.90;;;;;;5014283;28;20033;-35
2022/02/25 00:50:32;;;;;;;7.82;1.00;;;4.40;99.90;;;;;;5012987;28;20052;-33
2022/02/25 00:52:57;;;;;;;5.47;1.13;;;4.40;99.90;;;;;;5027978;28;20509;-45
2022/02/25 00:55:23;;;;;;;3.42;1.02;;;4.30;99.90;;;;;;5032080;28;20029;-36
2022/02/25 00:57:50;;;;;;;7.18;0.93;;;4.40;99.90;;;;;;5030402;28;20095;-36
2022/02/25 01:00:19;;;;;;;11.57;0.88;;;4.30;99.90;;;;;;5032426;28;20030;-33
2022/02/25 01:02:46;;;;;;;6.30;1.20;;;4.20;99.90;;;;;;5032070;28;20105;-35
2022/02/25 01:05:12;;;;;;;4.13;0.75;;;4.10;99.90;;;;;;5017348;28;20041;-36
2022/02/25 01:07:39;;;;;;;5.40;0.85;;;4.00;99.90;;;;;;5012640;28;20513;-34
2022/02/25 01:10:06;;;;;;;0.97;0.40;;;4.00;99.90;;;;;;5012606;28;20026;-31
2022/02/25 01:12:32;;;;;;;4.97;0.50;;;4.00;99.90;;;;;;5012756;28;20350;-35
2022/02/25 01:14:57;;;;;;;7.43;1.08;;;4.00;99.90;;;;;;5012746;28;20640;-36
2022/02/25 01:17:23;;;;;;;7.75;0.68;;;4.00;99.90;;;;;;5012492;28;20022;-34
2022/02/25 01:19:50;;;;;;;8.93;0.65;;;4.00;99.90;;;;;;5003741;28;20092;-35
2022/02/25 01:22:16;;;;;;;9.55;0.85;;;4.00;99.90;;;;;;5032106;28;20022;-33
2022/02/25 01:24:41;;;;;;;1.35;0.40;;;4.00;99.90;;;;;;5013208;28;20030;-34
2022/02/25 01:27:08;;;;;;;3.17;1.27;;;4.00;99.90;;;;;;5012322;28;20054;-32
2022/02/25 01:29:34;;;;;;;5.10;1.13;;;4.10;99.90;;;;;;5012794;28;20018;-45
2022/02/25 01:32:00;;;;;;;9.40;0.90;;;4.10;99.90;;;;;;5012403;28;20057;-32
2022/02/25 01:34:26;;;;;;;15.57;1.98;;;4.10;99.90;;;;;;5022483;28;20033;-35
2022/02/25 01:36:52;;;;;;;8.30;1.10;;;4.00;99.90;;;;;;5034776;28;20559;-35
2022/02/25 01:39:17;;;;;;;12.95;1.25;;;4.00;99.90;;;;;;5035639;28;20449;-35
2022/02/25 01:41:43;;;;;;;3.83;0.80;;;4.00;99.90;;;;;;5028496;28;20104;-35
2022/02/25 01:44:23;;;;;;;13.63;1.48;;;4.00;99.90;;;;;;5047217;28;20033;-31
2022/02/25 01:46:55;;;;;;;7.75;0.90;;;3.90;99.90;;;;;;5035570;28;20029;-37
2022/02/25 01:49:21;;;;;;;18.13;1.20;;;3.90;99.90;;;;;;5035725;28;20501;-32
2022/02/25 01:51:51;;;;;;;7.50;1.20;;;4.00;99.90;;;;;;5027882;28;20058;-37
2022/02/25 01:54:17;;;;;;;6.95;0.65;;;3.90;99.90;;;;;;5015593;28;20030;-34
2022/02/25 01:56:43;;;;;;;8.93;1.08;;;4.00;99.90;;;;;;4997788;28;20465;-31
2022/02/25 01:59:10;;;;;;;11.18;1.23;;;4.00;99.90;;;;;;5015705;28;20041;-32
2022/02/25 02:01:37;;;;;;;7.88;1.42;;;4.00;99.90;;;;;;5022415;28;20033;-32
2022/02/25 02:04:03;;;;;;;5.00;0.65;;;4.10;99.90;;;;;;5015292;28;20508;-33
2022/02/25 02:06:29;;;;;;;5.15;1.08;;;4.10;99.90;;;;;;5015391;28;20037;-35
2022/02/25 02:08:55;;;;;;;5.93;1.00;;;4.10;99.90;;;;;;5016574;28;20033;-61
2022/02/25 02:11:51;;;;;;;6.35;0.98;;;4.20;99.90;;;;;;5034652;28;20038;-33
2022/02/25 02:14:20;;;;;;;5.10;0.65;;;4.10;99.90;;;;;;5013264;28;20524;-34
2022/02/25 02:16:48;;;;;;;8.32;1.17;;;4.10;99.90;;;;;;5041008;28;20022;-32
2022/02/25 02:19:15;;;;;;;3.70;1.13;;;4.20;99.90;;;;;;5030088;28;20474;-46
2022/02/25 02:21:45;;;;;;;9.77;0.88;;;4.10;99.90;;;;;;5030482;28;20539;-33
2022/02/25 02:24:12;;;;;;;5.38;0.98;;;4.10;99.90;;;;;;5042755;28;20033;-31
2022/02/25 02:26:37;;;;;;;8.10;0.80;;;4.10;99.90;;;;;;5041384;28;20041;-31
2022/02/25 02:29:04;;;;;;;9.27;1.10;;;4.10;99.90;;;;;;5033119;28;20022;-33
2022/02/25 02:31:30;;;;;;;1.45;0.63;;;4.00;99.90;;;;;;5028004;28;20037;-34
2022/02/25 02:33:56;;;;;;;4.22;0.68;;;4.00;99.90;;;;;;5030497;28;20033;-36
2022/02/25 02:36:22;;;;;;;4.80;0.55;;;4.00;99.90;;;;;;5034400;28;20535;-31
2022/02/25 02:38:48;;;;;;;2.47;0.75;;;4.00;99.90;;;;;;5034632;28;20021;-34
2022/02/25 02:41:14;;;;;;;8.85;1.02;;;3.90;99.90;;;;;;5010976;28;20030;-36
2022/02/25 02:43:39;;;;;;;8.82;1.10;;;3.90;99.90;;;;;;5025403;28;20040;-35
2022/02/25 02:46:06;;;;;;;1.63;0.70;;;3.90;99.90;;;;;;5029713;28;20545;-41
2022/02/25 02:48:33;;;;;;;3.15;0.82;;;3.90;99.90;;;;;;5038469;28;20068;-36
2022/02/25 02:50:59;;;;;;;7.40;1.33;;;3.80;99.90;;;;;;5032845;28;20052;-43
2022/02/25 02:53:25;;;;;;;10.18;1.13;;;3.80;99.90;;;;;;5034467;28;20033;-31
2022/02/25 02:55:51;;;;;;;14.45;1.30;;;3.90;99.90;;;;;;5034300;28;20030;-32
2022/02/25 02:58:17;;;;;;;7.63;1.67;;;3.80;99.90;;;;;;5034104;28;20179;-37
2022/02/25 03:00:45;;;;;;;8.35;1.08;;;3.80;99.90;;;;;;5022959;28;20029;-31
2022/02/25 03:03:10;;;;;;;6.15;0.95;;;3.80;99.90;;;;;;5014847;28;20025;-34
2022/02/25 03:05:37;;;;;;;2.53;1.00;;;3.80;99.90;;;;;;5034165;28;20037;-37
2022/02/25 03:08:04;;;;;;;2.85;0.95;;;3.80;99.90;;;;;;5034482;28;20026;-34
2022/02/25 03:10:31;;;;;;;9.30;1.25;;;3.80;99.90;;;;;;5024289;28;20030;-36
2022/02/25 03:12:57;;;;;;;11.20;1.10;;;3.80;99.90;;;;;;5014298;28;20033;-33
2022/02/25 03:15:22;;;;;;;4.80;0.90;;;3.80;99.90;;;;;;5021679;28;20040;-42
2022/02/25 03:17:48;;;;;;;7.47;0.88;;;3.80;99.90;;;;;;5034542;28;20481;-31
2022/02/25 03:20:14;;;;;;;12.65;1.25;;;3.80;99.90;;;;;;5040783;28;20542;-31
2022/02/25 03:22:40;;;;;;;8.60;1.08;;;3.80;99.90;;;;;;5034100;28;20025;-34
2022/02/25 03:25:07;;;;;;;6.93;1.38;;;3.80;99.90;;;;;;5027680;28;20390;-31
2022/02/25 03:27:32;;;;;;;4.57;1.08;;;3.80;99.90;;;;;;5013972;28;20084;-36
2022/02/25 03:29:58;;;;;;;4.55;1.58;;;3.80;99.90;;;;;;5013826;28;20069;-34
2022/02/25 03:32:24;;;;;;;1.85;0.63;;;3.80;99.90;;;;;;5014086;28;20156;-36
2022/02/25 03:34:50;;;;;;;6.18;2.25;;;3.80;99.90;;;;;;5014063;28;20029;-39
2022/02/25 03:37:17;;;;;;;5.75;1.10;;;3.80;99.90;;;;;;5032802;28;20021;-35
2022/02/25 03:39:43;;;;;;;13.60;1.10;;;3.80;99.90;;;;;;5041040;28;20127;-33
2022/02/25 03:42:09;;;;;;;8.00;1.33;;;3.80;99.90;;;;;;5033430;28;20094;-35
2022/02/25 03:44:34;;;;;;;5.65;1.33;;;3.80;99.90;;;;;;5031698;28;20044;-36
2022/02/25 03:47:00;;;;;;;6.65;1.90;;;3.90;99.90;;;;;;5029649;28;20025;-51
2022/02/25 03:49:26;;;;;;;10.02;1.60;;;3.80;99.90;;;;;;5033284;28;20458;-31
2022/02/25 03:51:52;;;;;;;11.98;1.92;;;3.80;99.90;;;;;;5016978;28;20053;-34
2022/02/25 03:54:18;;;;;;;7.28;1.23;;;3.80;99.90;;;;;;5052791;28;20116;-36
2022/02/25 03:56:44;;;;;;;4.03;0.80;;;3.90;99.90;;;;;;5021337;28;20025;-36
2022/02/25 03:59:10;;;;;;;5.05;1.00;;;3.90;99.90;;;;;;5031565;28;20029;-37
2022/02/25 04:01:36;;;;;;;7.32;0.95;;;3.80;99.90;;;;;;5037109;28;20091;-37
2022/02/25 04:04:01;;;;;;;8.52;1.25;;;3.80;99.90;;;;;;5033727;28;20022;-32
2022/02/25 04:06:27;;;;;;;7.05;1.13;;;3.80;99.90;;;;;;5029606;28;20064;-32
2022/02/25 04:08:54;;;;;;;6.53;1.20;;;3.80;99.90;;;;;;5033072;28;20029;-32
2022/02/25 04:11:21;;;;;;;7.07;1.20;;;3.70;99.90;;;;;;5033100;28;20098;-30
2022/02/25 04:14:05;;;;;;;9.98;1.30;;;3.70;99.90;;;;;;5038247;28;20466;-30
2022/02/25 04:16:32;;;;;;;7.72;2.28;;;3.70;99.90;;;;;;5035384;28;20109;-37
2022/02/25 04:18:58;;;;;;;11.93;0.90;;;3.70;99.90;;;;;;5048284;28;20029;-34
2022/02/25 04:21:23;;;;;;;15.10;1.50;;;3.80;99.90;;;;;;5020643;28;20021;-34
2022/02/25 04:23:49;;;;;;;3.65;0.75;;;3.90;99.90;;;;;;5016712;28;20053;-31
2022/02/25 04:26:14;;;;;;;11.57;1.17;;;3.90;99.90;;;;;;5017208;28;20572;-34
2022/02/25 04:28:40;;;;;;;3.63;1.13;;;3.90;99.90;;;;;;5022910;28;20121;-46
2022/02/25 04:31:05;;;;;;;8.35;1.10;;;4.00;99.90;;;;;;5031634;28;20029;-34
2022/02/25 04:33:32;;;;;;;14.25;1.10;;;4.10;99.90;;;;;;5018649;28;20528;-31
2022/02/25 04:35:57;;;;;;;8.52;1.60;;;4.10;99.90;;;;;;5023969;28;20381;-35
2022/02/25 04:38:23;;;;;;;19.48;2.20;;;4.10;99.90;;;;;;5024773;28;20026;-34
2022/02/25 04:40:49;;;;;;;5.93;1.20;;;4.20;99.90;;;;;;5013883;28;20493;-33
2022/02/25 04:43:15;;;;;;;4.60;1.05;;;4.20;99.90;;;;;;5022464;28;20018;-50
2022/02/25 04:45:40;;;;;;;9.57;1.35;;;4.20;99.90;;;;;;5031169;28;20389;-34
2022/02/25 04:48:06;;;;;;;13.45;1.33;;;4.20;99.90;;;;;;5013855;28;20030;-31
2022/02/25 04:50:32;;;;;;;4.13;1.30;;;4.30;99.90;;;;;;5038722;28;20112;-33
2022/02/25 04:52:57;;;;;;;9.63;1.95;;;4.30;99.90;;;;;;5037021;28;20039;-33
2022/02/25 04:55:23;;;;;;;10.93;1.42;;;4.30;99.90;;;;;;5032357;28;20474;-36
2022/02/25 04:57:49;;;;;;;4.65;1.23;;;4.30;99.90;;;;;;5024248;28;20045;-36
2022/02/25 05:00:15;;;;;;;14.65;1.40;;;4.30;99.90;;;;;;5033400;28;20022;-34
2022/02/25 05:02:46;;;;;;;8.27;1.42;;;4.30;99.90;;;;;;5037339;28;20553;-33
2022/02/25 05:05:12;;;;;;;7.45;1.40;;;4.40;99.90;;;;;;5040217;28;20029;-33
2022/02/25 05:07:38;;;;;;;12.45;1.17;;;4.40;99.90;;;;;;5036207;28;20033;-31
2022/02/25 05:10:04;;;;;;;9.90;1.30;;;4.40;99.90;;;;;;5036801;28;20390;-30
2022/02/25 05:12:29;;;;;;;8.35;1.30;;;4.40;99.90;;;;;;5049058;28;20038;-30
2022/02/25 05:20:24;;;;;;;8.05;1.30;;;4.40;99.90;;;;;;5035054;28;20100;-36
2022/02/25 05:22:57;;;;;;;4.88;1.00;;;4.40;99.90;;;;;;5047346;28;20020;-30
2022/02/25 05:25:23;;;;;;;11.27;2.05;;;4.50;99.90;;;;;;5050369;28;20021;-33
2022/02/25 05:27:50;;;;;;;14.77;1.60;;;4.40;99.90;;;;;;5043547;28;20022;-33
2022/02/25 05:30:16;;;;;;;15.00;2.28;;;4.40;99.90;;;;;;5036020;28;20022;-30
2022/02/25 05:32:43;;;;;;;11.90;1.83;;;4.30;99.90;;;;;;5035854;28;20036;-33
2022/02/25 05:35:09;;;;;;;9.38;1.73;;;4.30;99.90;;;;;;5032536;28;20029;-31
2022/02/25 05:37:39;;;;;;;14.70;1.42;;;4.30;99.90;;;;;;5031836;28;20025;-32
2022/02/25 05:40:07;;;;;;;9.48;1.30;;;4.40;99.90;;;;;;5023317;28;20100;-30
2022/02/25 05:42:33;;;;;;;8.88;1.40;;;4.40;99.90;;;;;;5022653;28;20026;-33
2022/02/25 05:45:00;;;;;;;7.80;1.42;;;4.40;99.90;;;;;;5023412;28;20032;-45
2022/02/25 05:47:26;;;;;;;11.55;1.58;;;4.40;99.90;;;;;;5019895;28;20379;-29
2022/02/25 05:49:52;;;;;;;13.60;1.63;;;4.40;99.90;;;;;;5016714;28;20034;-32
2022/02/25 05:52:17;;;;;;;7.93;1.92;;;4.40;99.90;;;;;;5020933;28;20110;-32
2022/02/25 05:54:43;;;;;;;4.28;1.52;;;4.40;99.90;;;;;;5014752;28;20061;-29
2022/02/25 05:57:09;;;;;;;15.18;1.33;;;4.40;99.90;;;;;;5022927;28;20088;-30
2022/02/25 05:59:34;;;;;;;14.88;1.83;;;4.40;99.90;;;;;;5033373;28;20028;-31
2022/02/25 06:02:00;;;;;;;6.85;1.55;;;4.40;99.90;;;;;;5033488;28;20051;-30
2022/02/25 06:04:26;;;;;;;20.67;2.72;;;4.40;99.90;;;;;;5035291;28;20048;-33
2022/02/25 06:06:51;;;;;;;11.32;1.65;;;4.50;99.90;;;;;;5018616;28;20132;-29
2022/02/25 06:09:17;;;;;;;13.38;1.65;;;4.50;99.90;;;;;;5016377;28;20087;-35
2022/02/25 06:11:42;;;;;;;22.50;2.25;;;4.50;99.90;;;;;;5027819;28;20082;-31
2022/02/25 06:14:08;;;;;;;11.38;2.53;;;4.50;99.90;;;;;;5020193;28;20033;-33
2022/02/25 06:16:34;;;;;;;11.73;1.50;;;4.60;99.90;;;;;;5035276;28;20022;-37
2022/02/25 06:18:59;;;;;;;18.15;2.13;;;4.60;99.90;;;;;;5030985;28;20029;-34
2022/02/25 06:21:25;;;;;;;10.48;2.20;;;4.70;99.90;;;;;;5026945;28;20354;-33
2022/02/25 06:23:50;;;;;;;12.73;2.03;;;4.70;99.90;;;;;;5033422;28;20030;-36
2022/02/25 06:26:16;;;;;;;8.82;1.65;;;4.80;99.90;;;;;;5034084;28;20105;-32
2022/02/25 06:28:42;;;;;;;14.80;1.75;;;4.80;99.90;;;;;;5026409;28;20037;-30
2022/02/25 06:31:07;;;;;;;8.98;1.38;;;4.80;99.90;;;;;;5014877;28;20465;-34
2022/02/25 06:33:33;;;;;;;13.63;1.73;;;4.90;99.90;;;;;;5020800;28;20109;-32
2022/02/25 06:35:58;;;;;;;11.52;1.98;;;4.90;99.90;;;;;;5022928;28;20061;-35
2022/02/25 06:38:25;;;;;;;15.00;1.33;;;5.00;99.90;;;;;;5026296;28;20014;-34
2022/02/25 06:40:51;;;;;;;7.20;2.03;;;5.00;99.90;;;;;;5033314;28;20029;-30
2022/02/25 06:43:17;;;;;;;17.50;1.95;;;5.00;99.90;;;;;;5032398;28;20032;-36
2022/02/25 06:45:43;;;;;;;19.05;1.75;;;5.00;99.90;;;;;;5034448;28;20482;-30
2022/02/25 06:48:09;;;;;;;12.73;1.60;;;5.10;99.90;;;;;;5025263;28;20027;-33
2022/02/25 06:50:34;;;;;;;10.07;1.38;;;5.00;99.90;;;;;;5029951;28;20075;-36
2022/02/25 06:53:00;;;;;;;20.17;2.20;;;5.10;99.90;;;;;;5029992;28;20049;-33
2022/02/25 06:55:25;;;;;;;25.92;1.65;;;5.10;99.90;;;;;;5030722;28;20104;-36
2022/02/25 06:57:51;;;;;;;11.65;1.45;;;5.20;99.90;;;;;;5019335;28;20046;-33
2022/02/25 07:00:21;;;;;;;20.75;2.58;;;5.20;99.90;;;;;;5033484;28;20021;-29
2022/02/25 07:02:51;;;;;;;13.75;1.60;;;5.20;99.90;;;;;;5022210;28;20073;-35
2022/02/25 07:05:18;;;;;;;16.95;1.55;;;5.30;99.90;;;;;;5014774;28;20025;-32
2022/02/25 07:07:44;;;;;;;15.68;2.97;;;5.30;99.90;;;;;;5020191;28;20034;-34
2022/02/25 07:10:10;;;;;;;15.80;2.08;;;5.40;99.90;;;;;;5039899;28;20495;-36
2022/02/25 07:12:35;;;;;;;17.20;1.95;;;5.50;99.90;;;;;;5028493;28;20113;-32
2022/02/25 07:15:04;;;;;;;10.90;1.50;;;5.50;99.90;;;;;;5029602;28;20385;-40
2022/02/25 07:17:30;;;;;;;5.85;1.65;;;5.50;99.90;;;;;;5029007;28;20527;-44
2022/02/25 07:19:55;;;;;;;4.72;1.10;;;5.60;99.90;;;;;;5038460;28;20029;-32
2022/02/25 07:22:21;;;;;;;14.07;1.55;;;5.60;99.90;;;;;;5052072;28;20025;-33
2022/02/25 07:24:46;;;;;;;4.88;1.70;;;5.70;99.90;;;;;;5042357;28;20033;-33
2022/02/25 07:27:12;;;;;;;6.60;1.30;;;5.60;99.90;;;;;;5051667;28;20109;-35
2022/02/25 07:29:38;;;;;;;8.25;1.83;;;5.70;99.90;;;;;;5035355;28;20091;-32
2022/02/25 07:32:04;;;;;;;10.00;1.95;;;5.80;99.90;;;;;;5036065;28;20057;-33
2022/02/25 07:34:29;;;;;;;8.40;1.63;;;5.80;99.90;;;;;;5048637;28;20034;-30
2022/02/25 07:36:55;;;;;;;12.25;1.73;;;5.80;99.90;;;;;;5021619;28;20486;-30
2022/02/25 07:39:21;;;;;;;5.38;1.35;;;5.90;99.90;;;;;;5027417;28;20026;-35
2022/02/25 07:41:47;;;;;;;9.80;1.80;;;5.90;99.90;;;;;;5038511;28;20500;-32
2022/02/25 07:44:13;;;;;;;11.43;1.25;;;5.90;99.90;;;;;;5034756;28;20033;-32
2022/02/25 07:46:38;;;;;;;24.58;2.60;;;6.00;99.90;;;;;;5035470;28;20504;-31
2022/02/25 07:49:04;;;;;;;8.82;2.00;;;6.00;99.90;;;;;;5037306;28;20029;-35
2022/02/25 07:51:30;;;;;;;12.02;1.35;;;6.10;99.90;;;;;;5044084;28;20507;-33
2022/02/25 07:53:56;;;;;;;3.67;1.33;;;6.20;99.90;;;;;;5041426;28;20033;-34
2022/02/25 07:56:23;;;;;;;24.58;3.05;;;6.10;99.90;;;;;;5046431;28;20495;-52
2022/02/25 07:58:49;;;;;;;7.18;1.40;;;6.10;99.90;;;;;;5037342;28;20065;-36
2022/02/25 08:01:15;;;;;;;9.07;2.33;;;6.10;99.90;;;;;;5030014;28;20100;-50
2022/02/25 08:03:41;;;;;;;6.22;1.65;;;6.20;99.90;;;;;;5014814;28;20108;-31
2022/02/25 08:06:07;;;;;;;11.93;2.17;;;6.20;99.90;;;;;;5021947;28;20026;-32
2022/02/25 08:08:32;;;;;;;11.20;2.42;;;6.20;99.90;;;;;;5034989;28;20063;-31
2022/02/25 08:10:58;;;;;;;9.82;1.85;;;6.20;99.90;;;;;;5035694;28;20084;-29
2022/02/25 08:13:24;;;;;;;13.43;2.20;;;6.30;99.90;;;;;;5034452;28;20036;-31
2022/02/25 08:15:49;;;;;;;12.27;3.65;;;6.40;99.90;;;;;;5051097;28;20389;-36
2022/02/25 08:18:15;;;;;;;14.88;1.90;;;6.40;99.90;;;;;;5034181;28;20026;-34
2022/02/25 08:20:59;;;;;;;6.22;1.25;;;6.50;99.90;;;;;;5032830;28;20036;-33
2022/02/25 08:23:25;;;;;;;21.08;1.85;;;6.70;99.90;;;;;;5032800;28;20034;-32
2022/02/25 08:25:51;;;;;;;12.90;2.00;;;6.70;99.90;;;;;;5032739;28;20032;-33
2022/02/25 08:28:18;;;;;;;9.90;1.63;;;6.80;99.90;;;;;;5033058;28;20496;-40
2022/02/25 08:30:44;;;;;;;7.88;1.40;;;6.90;99.90;;;;;;5032504;28;20088;-34
2022/02/25 08:33:11;;;;;;;20.02;3.15;;;7.10;99.90;;;;;;5032651;28;20025;-34
2022/02/25 08:35:37;;;;;;;3.42;1.52;;;7.30;99.90;;;;;;5032894;28;20053;-35
2022/02/25 08:38:04;;;;;;;11.70;2.00;;;7.40;99.90;;;;;;5032930;28;20032;-32
2022/02/25 08:40:30;;;;;;;9.25;2.17;;;7.40;99.90;;;;;;5032770;28;20064;-36
2022/02/25 08:42:56;;;;;;;7.75;1.60;;;7.40;99.90;;;;;;5032631;28;20037;-31
2022/02/25 08:45:22;;;;;;;16.13;2.00;;;7.50;99.90;;;;;;5032909;28;20366;-31
2022/02/25 08:47:49;;;;;;;10.35;2.15;;;7.40;99.90;;;;;;5036664;28;20041;-34
2022/02/25 08:50:17;;;;;;;11.90;2.22;;;7.30;99.90;;;;;;5036713;28;20028;-41
2022/02/25 08:52:45;;;;;;;10.55;1.92;;;7.30;99.90;;;;;;5036339;28;20387;-48
2022/02/25 08:55:11;;;;;;;;;;;7.30;99.90;;;;;;5046291;28;20512;-30
2022/02/25 08:57:38;;;;;;;5.28;1.45;;;7.30;99.90;;;;;;5042412;28;19917;-35
2022/02/25 09:00:09;;;;;;;12.27;1.85;;;7.30;99.90;;;;;;5036478;28;20053;-37
2022/02/25 09:02:34;;;;;;;21.20;3.13;;;7.30;99.90;;;;;;5034908;28;20107;-34
2022/02/25 09:05:02;;;;;;;9.40;1.98;;;7.20;99.90;;;;;;5037681;28;20049;-35
2022/02/25 09:07:28;;;;;;;10.63;2.08;;;7.10;99.90;;;;;;5036644;28;20691;-31
2022/02/25 09:09:54;;;;;;;14.75;1.98;;;7.00;99.90;;;;;;5052486;28;20481;-29
2022/02/25 09:12:19;;;;;;;5.47;1.38;;;6.90;99.90;;;;;;5038312;28;20321;-37
2022/02/25 09:14:45;;;;;;;12.00;2.08;;;6.90;99.90;;;;;;5028128;28;20029;-34
2022/02/25 09:17:11;;;;;;;11.32;2.05;;;6.90;99.90;;;;;;5017797;28;20029;-32
2022/02/25 09:19:37;;;;;;;6.88;1.50;;;7.00;99.90;;;;;;5036717;28;20108;-38
2022/02/25 09:22:04;;;;;;;16.27;2.05;;;7.10;99.90;;;;;;5037768;28;20079;-36
2022/02/25 09:24:30;;;;;;;13.48;2.17;;;7.10;99.90;;;;;;5017334;28;20037;-29
2022/02/25 09:26:56;;;;;;;15.07;1.90;;;7.00;99.90;;;;;;5038718;28;20401;-34
2022/02/25 09:29:22;;;;;;;10.40;2.45;;;6.90;99.90;;;;;;5052886;28;20083;-30
2022/02/25 09:31:47;;;;;;;6.00;1.77;;;6.80;99.90;;;;;;5055263;28;20033;-31
2022/02/25 09:34:13;;;;;;;13.25;1.67;;;6.80;99.90;;;;;;5047067;28;20121;-33
2022/02/25 09:36:38;;;;;;;14.80;1.60;;;6.90;99.90;;;;;;5046224;28;20028;-30
2022/02/25 09:39:04;;;;;;;9.20;2.08;;;7.00;99.90;;;;;;5040697;28;20021;-31
2022/02/25 09:41:31;;;;;;;6.95;1.20;;;7.10;99.90;;;;;;5047776;28;20020;-35
2022/02/25 09:43:56;;;;;;;12.38;1.50;;;7.20;99.90;;;;;;5036326;28;20438;-34
2022/02/25 09:46:22;;;;;;;24.35;2.15;;;7.30;99.90;;;;;;5036641;28;20064;-30
2022/02/25 09:48:48;;;;;;;10.00;1.60;;;7.50;99.90;;;;;;5040478;28;20032;-34
2022/02/25 09:51:14;;;;;;;22.30;2.28;;;7.40;99.90;;;;;;5046564;28;20491;-35
2022/02/25 09:53:39;;;;;;;14.48;1.65;;;7.50;99.90;;;;;;5035401;28;20051;-30
2022/02/25 09:56:05;;;;;;;8.32;1.67;;;7.60;99.90;;;;;;5030902;28;20056;-32
2022/02/25 09:58:31;;;;;;;8.98;1.58;;;7.70;99.90;;;;;;5016838;28;20048;-36
2022/02/25 10:00:57;;;;;;;17.25;2.10;;;7.90;99.90;;;;;;5039103;28;20021;-34
2022/02/25 10:03:25;;;;;;;12.95;1.98;;;8.20;99.90;;;;;;5037859;28;20108;-41
2022/02/25 10:05:51;;;;;;;13.68;1.67;;;8.20;99.90;;;;;;5034281;28;20021;-36
2022/02/25 10:08:23;;;;;;;13.25;2.60;;;8.20;99.90;;;;;;5034859;28;20057;-35
2022/02/25 10:10:54;;;;;;;13.00;1.80;;;8.20;99.90;;;;;;5034818;28;20390;-34
2022/02/25 10:13:25;;;;;;;6.50;1.48;;;8.30;99.90;;;;;;5034789;28;20032;-37
2022/02/25 10:15:54;;;;;;;14.52;2.40;;;8.20;99.90;;;;;;5034855;28;20083;-36
2022/02/25 10:18:23;;;;;;;28.02;2.88;;;8.40;99.90;;;;;;5034868;28;20083;-30
2022/02/25 10:20:49;;;;;;;15.18;2.40;;;8.70;99.90;;;;;;5034874;28;20142;-33
2022/02/25 10:23:20;;;;;;;20.38;2.83;;;8.60;99.90;;;;;;5034921;28;20032;-32
2022/02/25 10:25:46;;;;;;;17.67;2.55;;;8.60;99.90;;;;;;5034809;28;20033;-34
2022/02/25 10:28:12;;;;;;;9.88;2.08;;;8.40;99.90;;;;;;5034761;28;20022;-32
2022/02/25 10:30:39;;;;;;;16.05;1.77;;;8.20;99.90;;;;;;5034673;28;20032;-34
2022/02/25 10:33:05;;;;;;;11.65;1.52;;;8.10;99.90;;;;;;5016838;28;20022;-34
2022/02/25 10:35:36;;;;;;;18.30;2.95;;;8.20;99.90;;;;;;5034853;28;20025;-38
2022/02/25 10:38:15;;;;;;;16.85;1.65;;;8.30;99.90;;;;;;5034503;28;20017;-37
2022/02/25 10:40:44;;;;;;;15.45;1.55;;;8.20;99.90;;;;;;5040008;28;20021;-33
2022/02/25 10:43:17;;;;;;;15.88;1.70;;;8.20;99.90;;;;;;5037761;28;20025;-37
2022/02/25 10:45:45;;;;;;;13.45;1.55;;;8.20;99.90;;;;;;5053836;28;20075;-35
2022/02/25 10:48:15;;;;;;;12.07;2.42;;;8.10;99.90;;;;;;5054688;28;20037;-37
2022/02/25 10:50:46;;;;;;;13.85;1.80;;;8.00;99.90;;;;;;5044097;28;20033;-35
2022/02/25 10:53:12;;;;;;;15.80;3.00;;;7.90;99.90;;;;;;5054238;28;20039;-33
2022/02/25 10:55:38;;;;;;;8.18;2.20;;;7.80;99.90;;;;;;5051031;28;20040;-35
2022/02/25 10:58:04;;;;;;;13.88;1.67;;;7.80;99.90;;;;;;5028050;28;20517;-33
2022/02/25 11:00:30;;;;;;;16.25;1.55;;;7.70;99.90;;;;;;5020014;28;20018;-30
2022/02/25 11:03:00;;;;;;;11.40;2.03;;;7.70;99.90;;;;;;5032860;28;20045;-32
2022/02/25 11:05:27;;;;;;;12.05;1.75;;;7.80;99.90;;;;;;5014624;28;20382;-37
2022/02/25 11:07:58;;;;;;;13.95;2.08;;;7.90;99.90;;;;;;5022408;28;20029;-38
2022/02/25 11:10:26;;;;;;;15.65;2.28;;;7.50;99.90;;;;;;5026927;28;20037;-36
2022/02/25 11:12:52;;;;;;;;;;;7.20;99.90;;;;;;5025450;28;20470;-33
2022/02/25 11:15:24;;;;;;;11.75;1.45;;;7.00;99.90;;;;;;5033664;28;20364;-36
2022/02/25 11:17:50;;;;;;;6.68;1.83;;;6.80;99.90;;;;;;5014245;28;20041;-34
2022/02/25 11:20:21;;;;;;;5.22;0.98;;;6.60;99.90;;;;;;5015671;28;20440;-32
2022/02/25 11:22:51;;;;;;;6.47;1.10;;;6.50;99.90;;;;;;5013850;28;20524;-32
2022/02/25 11:25:18;;;;;;;9.02;1.92;;;6.50;99.90;;;;;;5013929;28;20050;-36
2022/02/25 11:27:44;;;;;;;14.32;2.08;;;6.50;99.90;;;;;;5013873;28;20033;-34
2022/02/25 11:30:33;;;;;;;17.00;1.50;;;6.70;99.90;;;;;;5017443;28;20365;-35
2022/02/25 11:33:03;;;;;;;11.85;2.05;;;6.80;99.90;;;;;;5016575;28;20414;-33
2022/02/25 11:35:32;;;;;;;12.52;1.75;;;6.90;99.90;;;;;;5020188;28;20022;-35
2022/02/25 11:38:09;;;;;;;12.65;2.78;;;6.90;99.90;;;;;;5023885;28;20113;-38
2022/02/25 11:40:54;;;;;;;11.13;1.30;;;6.80;99.90;;;;;;5026507;28;20033;-33
2022/02/25 11:43:37;;;;;;;7.18;1.40;;;6.20;99.90;;;;;;5028507;28;20025;-35
2022/02/25 11:46:05;;;;;;;16.67;1.35;;;5.70;99.90;;;;;;5030618;28;20069;-34
2022/02/25 11:48:47;;;;;;;19.15;2.17;;;5.40;99.90;;;;;;5028970;28;20025;-30
2022/02/25 11:51:37;;;;;;;18.63;2.22;;;5.40;99.90;;;;;;5026190;28;20037;-36
2022/02/25 11:54:21;;;;;;;8.85;2.00;;;5.40;99.90;;;;;;5032589;28;20033;-32
2022/02/25 11:57:10;;;;;;;18.20;2.15;;;5.50;99.90;;;;;;5032782;28;20032;-34
2022/02/25 11:59:36;;;;;;;7.10;1.77;;;5.70;99.90;;;;;;5006928;28;20406;-43
2022/02/25 12:02:12;;;;;;;14.60;2.35;;;5.80;99.90;;;;;;5018953;28;20025;-29
2022/02/25 12:04:40;;;;;;;14.60;1.88;;;6.00;99.90;;;;;;5030087;28;20037;-32
2022/02/25 12:07:08;;;;;;;8.63;1.80;;;6.10;99.90;;;;;;5018290;28;20057;-31
2022/02/25 12:10:01;;;;;;;11.65;2.10;;;6.20;99.90;;;;;;5032008;28;20465;-31
2022/02/25 12:12:26;;;;;;;13.90;2.00;;;6.30;99.90;;;;;;5028199;28;20030;-35
2022/02/25 12:14:59;;;;;;;18.40;2.92;;;6.40;99.90;;;;;;5032959;28;20049;-34
2022/02/25 12:17:36;;;;;;;15.00;1.90;;;6.70;99.90;;;;;;5026654;28;20385;-33
2022/02/25 12:20:09;;;;;;;21.00;2.10;;;7.00;99.90;;;;;;5022513;28;20482;-31
2022/02/25 12:23:01;;;;;;;11.43;2.13;;;7.10;99.90;;;;;;5027545;28;20033;-34
2022/02/25 12:25:38;;;;;;;18.50;2.28;;;7.30;99.90;;;;;;5022260;28;20467;-32
2022/02/25 12:28:10;;;;;;;16.98;3.25;;;7.50;99.90;;;;;;5029963;28;20486;-32
2022/02/25 12:30:37;;;;;;;21.50;2.20;;;7.60;99.90;;;;;;5017584;28;20087;-35
2022/02/25 12:33:28;;;;;;;22.20;2.40;;;7.70;99.90;;;;;;5030861;28;20033;-31
2022/02/25 12:35:56;;;;;;;11.48;1.60;;;8.10;99.90;;;;;;5028052;28;20029;-30
2022/02/25 12:38:24;;;;;;;20.85;2.25;;;8.50;99.90;;;;;;5011813;28;20107;-31
2022/02/25 12:40:51;;;;;;;17.77;2.33;;;8.40;99.90;;;;;;5024431;28;20022;-39
2022/02/25 12:43:19;;;;;;;20.65;2.22;;;8.10;99.90;;;;;;5030404;28;20028;-30
2022/02/25 12:45:45;;;;;;;12.70;1.48;;;8.10;99.90;;;;;;5032508;28;20029;-32
2022/02/25 12:48:12;;;;;;;12.93;1.77;;;7.90;99.90;;;;;;5026597;28;20026;-31
2022/02/25 12:50:44;;;;;;;15.55;3.25;;;7.90;99.90;;;;;;5041741;28;20036;-32
2022/02/25 12:53:10;;;;;;;12.02;2.75;;;7.90;99.90;;;;;;5031237;28;20033;-33
2022/02/25 12:55:35;;;;;;;15.45;2.20;;;8.00;99.90;;;;;;5026870;28;20381;-34
2022/02/25 12:58:02;;;;;;;14.00;1.40;;;8.20;99.90;;;;;;5027242;28;20038;-33
2022/02/25 13:00:27;;;;;;;13.35;2.20;;;8.30;99.90;;;;;;5028402;28;20462;-30